createdAt,value
2022-12-05T00:01:35.344Z,95.20
2022-12-05T00:04:37.761Z,95.20
2022-12-05T00:07:39.977Z,95.20
2022-12-05T00:10:42.562Z,95.20
2022-12-05T00:13:45.934Z,95.20
2022-12-05T00:16:48.256Z,95.20
2022-12-05T00:19:56.434Z,95.20
2022-12-05T00:23:02.203Z,95.20
2022-12-05T00:26:06.140Z,95.20
2022-12-05T00:29:08.480Z,95.20
2022-12-05T00:32:10.678Z,95.20
2022-12-05T00:35:12.983Z,95.20
2022-12-05T00:38:15.207Z,95.20
2022-12-05T00:41:20.341Z,95.20
2022-12-05T00:44:22.482Z,95.20
2022-12-05T00:47:24.686Z,95.20
2022-12-05T00:50:26.886Z,95.20
2022-12-05T00:53:29.234Z,95.20
2022-12-05T00:56:32.275Z,95.20
2022-12-05T00:59:34.842Z,95.20
2022-12-05T01:02:37.074Z,95.20
2022-12-05T01:05:39.344Z,95.20
2022-12-05T01:08:41.969Z,95.20
2022-12-05T01:11:45.015Z,95.20
2022-12-05T01:14:47.161Z,95.20
2022-12-05T01:17:49.288Z,95.20
2022-12-05T01:20:52.235Z,95.20
2022-12-05T01:23:54.591Z,95.20
2022-12-05T01:26:57.365Z,95.20
2022-12-05T01:29:59.873Z,95.20
2022-12-05T01:33:02.345Z,95.20
2022-12-05T01:36:04.884Z,95.20
2022-12-05T01:39:09.873Z,95.30
2022-12-05T01:42:13.040Z,95.20
2022-12-05T01:45:19.068Z,95.20
2022-12-05T01:48:39.322Z,95.20
2022-12-05T01:51:43.384Z,95.20
2022-12-05T01:54:48.059Z,95.20
2022-12-05T01:57:50.432Z,95.20
2022-12-05T02:00:52.908Z,95.20
2022-12-05T02:03:58.014Z,95.20
2022-12-05T02:07:00.245Z,95.20
2022-12-05T02:10:02.543Z,95.20
2022-12-05T02:13:34.854Z,95.20
2022-12-05T02:16:40.150Z,95.20
2022-12-05T02:20:06.284Z,95.20
2022-12-05T02:23:42.101Z,95.20
2022-12-05T02:27:18.648Z,95.20
2022-12-05T02:30:23.877Z,95.20
2022-12-05T02:33:25.968Z,95.20
2022-12-05T02:36:36.739Z,95.20
2022-12-05T02:40:05.435Z,95.20
2022-12-05T02:43:16.432Z,95.30
2022-12-05T02:46:22.927Z,95.20
2022-12-05T02:49:30.488Z,95.20
2022-12-05T02:52:33.753Z,95.20
2022-12-05T02:55:36.772Z,95.20
2022-12-05T02:58:52.879Z,95.20
2022-12-05T03:01:55.423Z,95.20
2022-12-05T03:05:29.714Z,95.20
2022-12-05T03:09:01.392Z,95.30
2022-12-05T03:12:14.657Z,95.20
2022-12-05T03:15:22.475Z,95.20
2022-12-05T03:18:35.310Z,95.20
2022-12-05T03:21:43.723Z,95.20
2022-12-05T03:24:45.896Z,95.20
2022-12-05T03:28:03.071Z,95.20
2022-12-05T03:31:11.499Z,95.20
2022-12-05T03:34:20.552Z,95.20
2022-12-05T03:37:29.970Z,95.20
2022-12-05T03:40:47.399Z,95.30
2022-12-05T03:43:57.364Z,95.30
2022-12-05T03:47:31.769Z,95.20
2022-12-05T03:50:37.728Z,95.30
2022-12-05T03:53:52.581Z,95.30
2022-12-05T03:57:23.169Z,95.30
2022-12-05T04:00:26.672Z,95.30
2022-12-05T04:03:56.889Z,95.30
2022-12-05T04:07:01.197Z,95.30
2022-12-05T04:10:12.650Z,95.30
2022-12-05T04:13:24.021Z,95.30
2022-12-05T04:16:52.605Z,95.30
2022-12-05T04:20:37.861Z,95.40
2022-12-05T04:23:44.802Z,95.40
2022-12-05T04:26:57.441Z,95.40
2022-12-05T04:30:10.437Z,95.40
2022-12-05T04:33:59.307Z,95.40
2022-12-05T04:37:07.001Z,95.40
2022-12-05T04:40:25.220Z,95.40
2022-12-05T04:43:30.644Z,95.40
2022-12-05T04:46:35.087Z,95.40
2022-12-05T04:49:41.079Z,95.40
2022-12-05T04:52:49.139Z,95.40
2022-12-05T04:55:54.382Z,95.40
2022-12-05T04:58:57.027Z,95.50
2022-12-05T05:02:10.222Z,95.40
2022-12-05T05:05:16.055Z,95.40
2022-12-05T05:08:24.608Z,95.40
2022-12-05T05:11:29.794Z,95.40
2022-12-05T05:14:31.966Z,95.40
2022-12-05T05:17:34.199Z,95.40
2022-12-05T05:20:36.398Z,95.40
2022-12-05T05:23:38.603Z,95.40
2022-12-05T05:26:43.247Z,95.40
2022-12-05T05:29:45.459Z,95.40
2022-12-05T05:32:47.927Z,95.40
2022-12-05T05:35:50.081Z,95.40
2022-12-05T05:38:58.413Z,95.40
2022-12-05T05:42:00.676Z,95.40
2022-12-05T05:45:03.670Z,95.40
2022-12-05T05:48:06.055Z,95.40
2022-12-05T05:51:10.816Z,95.40
2022-12-05T05:54:13.254Z,95.40
2022-12-05T05:57:20.221Z,95.40
2022-12-05T06:00:22.838Z,95.40
2022-12-05T06:03:25.161Z,95.50
2022-12-05T06:06:27.470Z,95.40
2022-12-05T06:09:29.624Z,95.40
2022-12-05T06:12:31.897Z,95.40
2022-12-05T06:15:34.067Z,95.40
2022-12-05T06:18:36.887Z,95.40
2022-12-05T06:21:39.039Z,95.40
2022-12-05T06:24:41.247Z,95.40
2022-12-05T06:27:43.389Z,95.40
2022-12-05T06:30:46.084Z,95.40
2022-12-05T06:33:48.827Z,95.40
2022-12-05T06:36:51.053Z,95.40
2022-12-05T06:39:53.341Z,95.40
2022-12-05T06:42:55.903Z,95.40
2022-12-05T06:45:58.136Z,95.40
2022-12-05T06:49:00.457Z,95.40
2022-12-05T06:52:02.678Z,95.40
2022-12-05T06:55:05.709Z,95.40
2022-12-05T06:58:07.874Z,95.40
2022-12-05T07:01:33.866Z,95.40
2022-12-05T07:04:36.201Z,95.40
2022-12-05T07:07:38.660Z,95.40
2022-12-05T07:10:40.822Z,95.40
2022-12-05T07:13:43.048Z,95.40
2022-12-05T07:16:45.272Z,95.40
2022-12-05T07:19:49.653Z,95.40
2022-12-05T07:22:52.163Z,95.40
2022-12-05T07:25:54.757Z,95.40
2022-12-05T07:28:58.125Z,95.40
2022-12-05T07:32:00.459Z,95.40
2022-12-05T07:35:02.707Z,95.40
2022-12-05T07:38:05.155Z,95.40
2022-12-05T07:41:13.361Z,95.40
2022-12-05T07:44:15.971Z,95.40
2022-12-05T07:47:18.325Z,95.40
2022-12-05T07:50:20.811Z,95.40
2022-12-05T07:53:23.034Z,95.40
2022-12-05T07:56:25.172Z,95.40
2022-12-05T07:59:27.378Z,95.40
2022-12-05T08:02:29.693Z,95.40
2022-12-05T08:05:33.841Z,95.40
2022-12-05T08:08:36.144Z,95.40
2022-12-05T08:11:38.289Z,95.40
2022-12-05T08:14:40.508Z,95.40
2022-12-05T08:17:42.688Z,95.40
2022-12-05T08:20:44.899Z,95.40
2022-12-05T08:23:47.592Z,95.40
2022-12-05T08:26:49.851Z,95.40
2022-12-05T08:29:53.684Z,95.40
2022-12-05T08:32:55.882Z,95.40
2022-12-05T08:35:59.893Z,95.40
2022-12-05T08:39:05.703Z,95.40
2022-12-05T08:42:07.959Z,95.40
2022-12-05T08:45:10.421Z,95.40
2022-12-05T08:48:12.600Z,95.50
2022-12-05T08:51:14.804Z,95.50
2022-12-05T08:54:19.774Z,95.50
2022-12-05T08:57:21.963Z,95.50
2022-12-05T09:00:24.320Z,95.40
2022-12-05T09:03:26.512Z,95.40
2022-12-05T09:06:29.986Z,95.40
2022-12-05T09:09:33.738Z,95.50
2022-12-05T09:12:39.361Z,95.50
2022-12-05T09:15:41.620Z,95.50
2022-12-05T09:18:45.643Z,95.50
2022-12-05T09:21:47.854Z,95.50
2022-12-05T09:24:50.428Z,95.50
2022-12-05T09:27:54.880Z,95.50
2022-12-05T09:31:05.740Z,95.50
2022-12-05T09:34:08.009Z,95.50
2022-12-05T09:37:30.893Z,95.50
2022-12-05T09:40:32.700Z,95.50
2022-12-05T09:43:55.732Z,95.50
2022-12-05T09:47:28.578Z,95.50
2022-12-05T09:50:44.060Z,95.50
2022-12-05T09:53:46.609Z,95.50
2022-12-05T09:56:51.928Z,95.50
2022-12-05T09:59:54.726Z,95.60
2022-12-05T10:03:41.225Z,95.60
2022-12-05T10:07:14.378Z,95.60
2022-12-05T10:10:29.315Z,95.50
2022-12-05T10:14:06.560Z,95.60
2022-12-05T10:17:23.752Z,95.60
2022-12-05T10:20:33.277Z,95.60
2022-12-05T10:23:57.171Z,95.60
2022-12-05T10:27:07.292Z,95.60
2022-12-05T10:30:17.454Z,95.60
2022-12-05T10:33:21.805Z,95.60
2022-12-05T10:36:25.594Z,95.60
2022-12-05T10:39:28.216Z,95.60
2022-12-05T10:42:34.217Z,95.60
2022-12-05T10:45:44.927Z,95.60
2022-12-05T10:48:47.234Z,95.70
2022-12-05T10:51:49.818Z,95.70
2022-12-05T10:54:57.584Z,95.70
2022-12-05T10:58:24.724Z,95.70
2022-12-05T11:01:27.368Z,95.70
2022-12-05T11:04:43.560Z,95.70
2022-12-05T11:07:49.770Z,95.80
2022-12-05T11:11:02.783Z,95.80
2022-12-05T11:14:24.030Z,95.80
2022-12-05T11:17:32.866Z,95.80
2022-12-05T11:20:37.962Z,95.70
2022-12-05T11:23:41.187Z,95.80
2022-12-05T11:26:43.369Z,95.80
2022-12-05T11:30:13.246Z,95.80
2022-12-05T11:33:24.323Z,95.80
2022-12-05T11:36:42.589Z,96.10
2022-12-05T11:39:44.788Z,95.80
2022-12-05T11:43:14.731Z,95.80
2022-12-05T11:46:24.946Z,95.80
2022-12-05T11:50:11.933Z,95.80
2022-12-05T11:53:26.345Z,96.20
2022-12-05T11:56:59.645Z,95.90
2022-12-05T12:00:19.917Z,96.10
2022-12-05T12:03:22.181Z,96.00
2022-12-05T12:06:29.360Z,96.10
2022-12-05T12:10:13.696Z,96.00
2022-12-05T12:13:28.183Z,96.10
2022-12-05T12:16:57.520Z,96.00
2022-12-05T12:20:11.900Z,96.00
2022-12-05T12:23:35.380Z,95.90
2022-12-05T12:26:46.572Z,96.00
2022-12-05T12:29:54.873Z,96.00
2022-12-05T12:33:28.734Z,96.00
2022-12-05T12:36:59.636Z,95.90
2022-12-05T12:40:37.772Z,95.90
2022-12-05T12:44:04.263Z,95.90
2022-12-05T12:47:24.674Z,95.90
2022-12-05T12:50:37.723Z,95.90
2022-12-05T12:54:29.301Z,95.90
2022-12-05T12:57:49.372Z,95.90
2022-12-05T13:01:22.296Z,95.80
2022-12-05T13:04:42.120Z,95.90
2022-12-05T13:08:19.999Z,95.80
2022-12-05T13:11:23.729Z,95.80
2022-12-05T13:14:27.649Z,95.80
2022-12-05T13:17:32.678Z,95.80
2022-12-05T13:20:36.600Z,95.80
2022-12-05T13:23:48.360Z,95.80
2022-12-05T13:26:51.050Z,95.80
2022-12-05T13:30:02.355Z,95.80
2022-12-05T13:33:10.465Z,95.80
2022-12-05T13:36:37.524Z,95.80
2022-12-05T13:39:58.760Z,95.70
2022-12-05T13:43:03.242Z,95.70
2022-12-05T13:46:08.050Z,95.70
2022-12-05T13:49:24.087Z,95.70
2022-12-05T13:52:30.825Z,95.70
2022-12-05T13:55:36.181Z,95.70
2022-12-05T13:58:49.594Z,95.70
2022-12-05T14:01:56.012Z,95.70
2022-12-05T14:04:58.726Z,95.70
2022-12-05T14:08:20.928Z,96.00
2022-12-05T14:11:23.510Z,95.70
2022-12-05T14:15:04.187Z,95.70
2022-12-05T14:18:20.418Z,95.70
2022-12-05T14:21:41.479Z,95.60
2022-12-05T14:25:11.884Z,95.60
2022-12-05T14:28:19.509Z,95.60
2022-12-05T14:32:02.396Z,95.60
2022-12-05T14:35:17.194Z,95.70
2022-12-05T14:38:30.855Z,95.60
2022-12-05T14:41:36.159Z,95.60
2022-12-05T14:44:47.421Z,95.60
2022-12-05T14:47:55.390Z,95.60
2022-12-05T14:50:59.341Z,95.60
2022-12-05T14:54:23.552Z,95.60
2022-12-05T14:57:26.328Z,95.60
2022-12-05T15:00:28.829Z,95.50
2022-12-05T15:03:48.052Z,95.50
2022-12-05T15:06:59.549Z,95.60
2022-12-05T15:10:07.852Z,95.60
2022-12-05T15:13:19.453Z,95.60
2022-12-05T15:16:23.719Z,95.60
2022-12-05T15:19:49.557Z,95.60
2022-12-05T15:22:51.807Z,95.50
2022-12-05T15:25:57.253Z,95.50
2022-12-05T15:29:08.893Z,95.60
2022-12-05T15:32:11.071Z,95.50
2022-12-05T15:35:15.218Z,95.50
2022-12-05T15:38:27.831Z,95.60
2022-12-05T15:41:30.210Z,95.60
2022-12-05T15:44:37.655Z,95.50
2022-12-05T15:47:45.675Z,95.50
2022-12-05T15:50:54.197Z,95.50
2022-12-05T15:54:14.175Z,95.60
2022-12-05T15:57:22.971Z,95.50
2022-12-05T16:00:26.710Z,95.50
2022-12-05T16:03:47.602Z,95.50
2022-12-05T16:06:54.576Z,95.50
2022-12-05T16:10:02.579Z,95.50
2022-12-05T16:13:08.475Z,95.50
2022-12-05T16:16:18.240Z,95.50
2022-12-05T16:19:23.194Z,95.90
2022-12-05T16:22:29.073Z,96.20
2022-12-05T16:25:36.549Z,96.50
2022-12-05T16:28:39.201Z,96.80
2022-12-05T16:31:42.373Z,97.00
2022-12-05T16:34:45.683Z,97.20
2022-12-05T16:37:47.961Z,97.40
2022-12-05T16:40:50.103Z,97.70
2022-12-05T16:43:53.098Z,97.70
2022-12-05T16:46:56.439Z,97.80
2022-12-05T16:49:58.961Z,97.90
2022-12-05T16:53:21.860Z,97.90
2022-12-05T16:56:25.513Z,98.00
2022-12-05T16:59:39.106Z,98.10
2022-12-05T17:02:41.350Z,98.20
2022-12-05T17:05:43.894Z,98.30
2022-12-05T17:08:46.043Z,98.40
2022-12-05T17:11:51.305Z,98.20
2022-12-05T17:14:53.543Z,98.30
2022-12-05T17:17:56.174Z,98.30
2022-12-05T17:21:02.180Z,98.30
2022-12-05T17:24:04.551Z,98.30
2022-12-05T17:27:09.954Z,98.20
2022-12-05T17:30:12.255Z,98.30
2022-12-05T17:33:16.645Z,98.30
2022-12-05T17:36:22.066Z,98.30
2022-12-05T17:39:28.385Z,98.20
2022-12-05T17:42:31.130Z,98.20
2022-12-05T17:45:33.736Z,98.20
2022-12-05T17:48:36.049Z,98.20
2022-12-05T17:51:58.463Z,98.20
2022-12-05T17:55:01.055Z,98.20
2022-12-05T17:58:03.445Z,98.20
2022-12-05T18:01:06.079Z,98.10
2022-12-05T18:04:09.129Z,98.10
2022-12-05T18:07:11.481Z,98.20
2022-12-05T18:10:19.942Z,98.20
2022-12-05T18:13:22.322Z,98.10
2022-12-05T18:16:24.551Z,98.10
2022-12-05T18:19:26.771Z,98.20
2022-12-05T18:22:29.614Z,98.20
2022-12-05T18:25:32.203Z,98.20
2022-12-05T18:28:39.211Z,98.30
2022-12-05T18:31:42.914Z,98.20
2022-12-05T18:34:45.464Z,98.20
2022-12-05T18:37:47.650Z,98.20
2022-12-05T18:40:50.334Z,98.20
2022-12-05T18:43:54.633Z,98.10
2022-12-05T18:46:58.734Z,98.10
2022-12-05T18:50:02.886Z,98.20
2022-12-05T18:53:06.670Z,98.50
2022-12-05T18:56:27.680Z,98.20
2022-12-05T18:59:30.782Z,98.20
2022-12-05T19:02:33.016Z,98.20
2022-12-05T19:05:35.445Z,98.20
2022-12-05T19:08:37.585Z,98.20
2022-12-05T19:11:48.693Z,98.30
2022-12-05T19:14:50.865Z,98.30
2022-12-05T19:17:53.127Z,98.30
2022-12-05T19:20:55.299Z,98.30
2022-12-05T19:23:58.055Z,98.40
2022-12-05T19:27:00.384Z,98.40
2022-12-05T19:30:07.945Z,98.40
2022-12-05T19:33:11.487Z,98.50
2022-12-05T19:36:16.276Z,98.50
2022-12-05T19:39:23.577Z,98.40
2022-12-05T19:42:27.355Z,98.40
2022-12-05T19:45:29.597Z,98.40
2022-12-05T19:48:31.905Z,98.50
2022-12-05T19:51:34.653Z,98.50
2022-12-05T19:54:36.920Z,98.50
2022-12-05T19:57:39.206Z,98.50
2022-12-05T20:00:42.052Z,98.50
2022-12-05T20:03:48.751Z,98.50
2022-12-05T20:06:51.018Z,98.50
2022-12-05T20:09:53.224Z,98.50
2022-12-05T20:12:55.470Z,98.50
2022-12-05T20:16:02.647Z,98.50
2022-12-05T20:19:05.670Z,98.50
2022-12-05T20:22:07.898Z,98.50
2022-12-05T20:25:10.207Z,98.40
2022-12-05T20:28:12.608Z,98.40
2022-12-05T20:31:23.461Z,98.50
2022-12-05T20:34:25.906Z,98.50
2022-12-05T20:37:31.173Z,98.50
2022-12-05T20:40:36.719Z,98.50
2022-12-05T20:43:39.269Z,98.50
2022-12-05T20:46:41.806Z,98.40
2022-12-05T20:49:44.430Z,98.40
2022-12-05T20:52:47.138Z,98.50
2022-12-05T20:55:50.035Z,98.50
2022-12-05T20:58:55.857Z,98.60
2022-12-05T21:01:58.131Z,98.40
2022-12-05T21:05:00.771Z,98.40
2022-12-05T21:08:02.960Z,98.50
2022-12-05T21:11:06.022Z,98.50
2022-12-05T21:14:08.581Z,98.50
2022-12-05T21:17:13.823Z,98.50
2022-12-05T21:20:15.998Z,98.50
2022-12-05T21:23:18.423Z,98.50
2022-12-05T21:26:22.014Z,98.50
2022-12-05T21:29:24.331Z,98.50
2022-12-05T21:32:28.072Z,98.50
2022-12-05T21:35:30.822Z,98.40
2022-12-05T21:38:33.105Z,98.40
2022-12-05T21:41:35.486Z,98.40
2022-12-05T21:44:37.804Z,98.40
2022-12-05T21:47:40.012Z,98.40
2022-12-05T21:50:42.630Z,98.40
2022-12-05T21:53:44.948Z,98.40
2022-12-05T21:56:47.074Z,98.40
2022-12-05T21:59:49.233Z,98.30
2022-12-05T22:02:51.812Z,98.30
2022-12-05T22:06:08.601Z,98.30
2022-12-05T22:09:12.127Z,98.30
2022-12-05T22:12:14.273Z,98.30
2022-12-05T22:15:16.577Z,98.30
2022-12-05T22:18:18.705Z,98.20
2022-12-05T22:21:21.972Z,98.30
2022-12-05T22:24:24.142Z,98.20
2022-12-05T22:27:26.501Z,98.30
2022-12-05T22:30:28.688Z,98.20
2022-12-05T22:33:31.929Z,98.20
2022-12-05T22:36:34.093Z,98.20
2022-12-05T22:39:36.255Z,98.20
2022-12-05T22:42:38.577Z,98.20
2022-12-05T22:45:40.676Z,98.20
2022-12-05T22:48:42.964Z,98.20
2022-12-05T22:51:45.173Z,98.20
2022-12-05T22:54:47.455Z,98.20
2022-12-05T22:57:49.665Z,98.20
2022-12-05T23:00:51.821Z,98.10
2022-12-05T23:03:58.336Z,98.10
2022-12-05T23:07:01.060Z,98.10
2022-12-05T23:10:07.475Z,98.10
2022-12-05T23:13:11.853Z,98.00
2022-12-05T23:16:25.446Z,98.00
2022-12-05T23:19:28.467Z,98.00
2022-12-05T23:22:41.692Z,98.00
2022-12-05T23:25:44.554Z,98.00
2022-12-05T23:28:49.550Z,98.00
2022-12-05T23:31:52.947Z,98.00
2022-12-05T23:34:57.314Z,98.00
2022-12-05T23:38:01.559Z,98.00
2022-12-05T23:41:20.608Z,98.00
2022-12-05T23:44:24.177Z,98.00
2022-12-05T23:47:27.058Z,98.00
2022-12-05T23:50:31.070Z,98.00
2022-12-05T23:53:36.097Z,98.00
2022-12-05T23:56:39.430Z,98.00
2022-12-05T23:59:42.493Z,98.00
